createdAt,value
2018-04-22T00:01:52.488Z,12.10
2018-04-22T00:04:19.241Z,12.00
2018-04-22T00:06:46.757Z,12.00
2018-04-22T00:09:13.531Z,12.00
2018-04-22T00:11:40.285Z,12.10
2018-04-22T00:14:07.724Z,12.20
2018-04-22T00:16:34.425Z,12.20
2018-04-22T00:19:01.108Z,12.20
2018-04-22T00:21:27.821Z,12.20
2018-04-22T00:23:54.519Z,12.20
2018-04-22T00:26:21.202Z,12.30
2018-04-22T00:28:47.892Z,12.20
2018-04-22T00:31:14.606Z,12.30
2018-04-22T00:33:42.048Z,12.20
2018-04-22T00:36:08.735Z,12.20
2018-04-22T00:38:35.435Z,12.10
2018-04-22T00:41:02.185Z,12.00
2018-04-22T00:43:29.719Z,12.00
2018-04-22T00:45:56.479Z,12.00
2018-04-22T00:48:23.944Z,11.90
2018-04-22T00:50:51.473Z,11.90
2018-04-22T00:53:18.278Z,11.90
2018-04-22T00:55:45.041Z,11.80
2018-04-22T00:58:11.828Z,11.90
2018-04-22T01:00:38.619Z,11.90
2018-04-22T01:03:05.424Z,11.80
2018-04-22T01:05:32.194Z,11.80
2018-04-22T01:07:58.964Z,11.80
2018-04-22T01:10:25.724Z,11.70
2018-04-22T01:12:53.212Z,11.60
2018-04-22T01:15:19.950Z,11.60
2018-04-22T01:17:46.688Z,11.50
2018-04-22T01:20:14.939Z,11.40
2018-04-22T01:22:42.409Z,11.40
2018-04-22T01:25:09.183Z,11.40
2018-04-22T01:27:35.928Z,11.50
2018-04-22T01:30:02.760Z,11.40
2018-04-22T01:32:29.502Z,11.40
2018-04-22T01:34:56.278Z,11.40
2018-04-22T01:37:23.075Z,11.50
2018-04-22T01:39:49.818Z,11.50
2018-04-22T01:42:17.262Z,11.50
2018-04-22T01:44:43.942Z,11.40
2018-04-22T01:47:10.624Z,11.40
2018-04-22T01:49:37.332Z,11.30
2018-04-22T01:52:04.039Z,11.30
2018-04-22T01:54:30.791Z,11.30
2018-04-22T01:56:57.492Z,11.20
2018-04-22T01:59:24.188Z,11.20
2018-04-22T02:01:50.871Z,11.20
2018-04-22T02:04:17.560Z,11.10
2018-04-22T02:06:44.275Z,11.10
2018-04-22T02:09:11.031Z,11.10
2018-04-22T02:11:37.800Z,11.00
2018-04-22T02:14:05.260Z,10.80
2018-04-22T02:16:32.739Z,10.80
2018-04-22T02:18:59.452Z,10.80
2018-04-22T02:21:26.912Z,10.60
2018-04-22T02:23:54.413Z,10.40
2018-04-22T02:26:21.161Z,10.30
2018-04-22T02:28:47.881Z,10.10
2018-04-22T02:31:14.636Z,9.90
2018-04-22T02:33:41.355Z,9.90
2018-04-22T02:36:08.095Z,9.80
2018-04-22T02:38:34.852Z,9.80
2018-04-22T02:41:01.643Z,9.80
2018-04-22T02:43:29.125Z,9.90
2018-04-22T02:45:56.027Z,9.90
2018-04-22T02:48:22.752Z,10.00
2018-04-22T02:50:49.497Z,10.00
2018-04-22T02:53:16.226Z,10.00
2018-04-22T02:55:42.953Z,10.10
2018-04-22T02:58:09.729Z,10.20
2018-04-22T03:00:37.215Z,10.60
2018-04-22T03:03:03.963Z,10.60
2018-04-22T03:05:30.675Z,10.60
2018-04-22T03:07:58.150Z,10.40
2018-04-22T03:10:24.883Z,10.40
2018-04-22T03:12:51.620Z,10.30
2018-04-22T03:15:18.335Z,10.10
2018-04-22T03:17:45.096Z,10.00
2018-04-22T03:20:11.815Z,9.90
2018-04-22T03:22:39.292Z,9.90
2018-04-22T03:25:06.740Z,9.90
2018-04-22T03:27:34.191Z,9.90
2018-04-22T03:30:01.644Z,9.70
2018-04-22T03:32:29.115Z,9.60
2018-04-22T03:34:55.838Z,9.50
2018-04-22T03:37:22.581Z,9.30
2018-04-22T03:39:50.075Z,9.20
2018-04-22T03:42:16.780Z,9.20
2018-04-22T03:44:44.256Z,9.60
2018-04-22T03:47:10.976Z,9.60
2018-04-22T03:49:38.439Z,9.70
2018-04-22T03:52:05.938Z,9.70
2018-04-22T03:54:32.654Z,9.70
2018-04-22T03:56:59.376Z,9.70
2018-04-22T03:59:26.824Z,9.60
2018-04-22T04:01:54.263Z,9.50
2018-04-22T04:04:20.984Z,9.60
2018-04-22T04:06:47.724Z,9.70
2018-04-22T04:09:14.464Z,9.90
2018-04-22T04:11:41.216Z,9.80
2018-04-22T04:14:07.991Z,9.70
2018-04-22T04:16:35.472Z,9.70
2018-04-22T04:19:20.362Z,9.70
2018-04-22T04:22:05.356Z,9.70
2018-04-22T04:24:56.163Z,9.70
2018-04-22T04:30:23.293Z,9.50
2018-04-22T04:32:50.043Z,9.40
2018-04-22T04:35:16.939Z,9.40
2018-04-22T04:37:44.956Z,9.50
2018-04-22T04:40:11.678Z,9.50
2018-04-22T04:42:38.375Z,9.50
2018-04-22T04:45:05.878Z,9.70
2018-04-22T04:47:32.579Z,9.60
2018-04-22T04:50:00.029Z,9.80
2018-04-22T04:52:27.484Z,10.00
2018-04-22T04:54:54.986Z,10.30
2018-04-22T04:57:21.683Z,10.20
2018-04-22T04:59:49.158Z,10.50
2018-04-22T05:02:15.871Z,10.40
2018-04-22T05:04:43.330Z,10.50
2018-04-22T05:07:10.796Z,10.50
2018-04-22T05:09:38.250Z,10.70
2018-04-22T05:12:05.666Z,10.80
2018-04-22T05:14:32.423Z,10.80
2018-04-22T05:16:59.841Z,11.10
2018-04-22T05:19:26.506Z,11.00
2018-04-22T05:21:53.183Z,11.10
2018-04-22T05:24:19.875Z,11.30
2018-04-22T05:26:46.556Z,11.30
2018-04-22T05:29:13.971Z,11.70
2018-04-22T05:31:40.646Z,11.70
2018-04-22T05:34:07.306Z,12.10
2018-04-22T05:36:34.005Z,12.40
2018-04-22T05:39:00.704Z,12.70
2018-04-22T05:41:27.363Z,13.00
2018-04-22T05:43:54.019Z,13.10
2018-04-22T05:46:20.712Z,13.00
2018-04-22T05:48:47.395Z,12.90
2018-04-22T05:51:14.066Z,12.80
2018-04-22T05:53:40.730Z,12.50
2018-04-22T05:56:07.449Z,12.20
2018-04-22T05:58:34.159Z,12.50
2018-04-22T06:01:01.619Z,13.20
2018-04-22T06:03:29.066Z,13.50
2018-04-22T06:05:56.491Z,13.70
2018-04-22T06:08:23.171Z,13.70
2018-04-22T06:10:50.646Z,14.30
2018-04-22T06:13:17.361Z,14.30
2018-04-22T06:15:44.899Z,14.40
2018-04-22T06:18:11.631Z,14.40
2018-04-22T06:20:38.369Z,14.70
2018-04-22T06:23:05.853Z,15.30
2018-04-22T06:25:33.326Z,15.20
2018-04-22T06:28:00.026Z,15.20
2018-04-22T06:30:26.707Z,15.30
2018-04-22T06:32:53.371Z,15.10
2018-04-22T06:35:20.061Z,15.70
2018-04-22T06:37:46.779Z,15.90
2018-04-22T06:40:13.486Z,16.00
2018-04-22T06:42:40.164Z,16.40
2018-04-22T06:45:06.827Z,16.60
2018-04-22T06:47:34.239Z,17.00
2018-04-22T06:50:00.932Z,17.10
2018-04-22T06:52:27.616Z,17.30
2018-04-22T06:54:54.291Z,17.30
2018-04-22T06:57:20.997Z,17.40
2018-04-22T06:59:47.679Z,17.40
2018-04-22T07:02:14.351Z,17.20
2018-04-22T07:04:41.024Z,17.50
2018-04-22T07:07:07.696Z,17.70
2018-04-22T07:09:34.383Z,17.50
2018-04-22T07:12:01.084Z,17.60
2018-04-22T07:14:27.781Z,17.80
2018-04-22T07:16:54.483Z,18.00
2018-04-22T07:19:21.198Z,18.30
2018-04-22T07:21:47.929Z,18.40
2018-04-22T07:24:14.637Z,18.50
2018-04-22T07:26:41.306Z,18.70
2018-04-22T07:29:07.984Z,18.70
2018-04-22T07:31:34.724Z,18.90
2018-04-22T07:34:01.428Z,19.00
2018-04-22T07:36:28.116Z,19.00
2018-04-22T07:38:55.088Z,18.90
2018-04-22T07:41:22.624Z,19.20
2018-04-22T07:43:49.383Z,19.20
2018-04-22T07:46:16.108Z,19.40
2018-04-22T07:48:42.938Z,19.50
2018-04-22T07:51:09.698Z,19.90
2018-04-22T07:53:37.195Z,20.40
2018-04-22T07:56:03.966Z,20.40
2018-04-22T07:58:30.711Z,20.70
2018-04-22T08:00:57.498Z,20.60
2018-04-22T08:03:25.131Z,20.70
2018-04-22T08:05:51.891Z,20.90
2018-04-22T08:08:18.619Z,20.90
2018-04-22T08:10:47.986Z,20.90
2018-04-22T08:13:14.776Z,20.90
2018-04-22T08:15:41.526Z,21.20
2018-04-22T08:18:08.263Z,21.50
2018-04-22T08:20:34.963Z,21.70
2018-04-22T08:23:01.659Z,21.80
2018-04-22T08:25:28.414Z,22.10
2018-04-22T08:27:55.132Z,22.70
2018-04-22T08:30:21.839Z,22.50
2018-04-22T08:32:49.266Z,22.80
2018-04-22T08:35:15.945Z,22.80
2018-04-22T08:37:42.659Z,23.00
2018-04-22T08:40:09.372Z,22.80
2018-04-22T08:42:36.084Z,22.40
2018-04-22T08:45:03.536Z,23.10
2018-04-22T08:47:30.218Z,23.10
2018-04-22T08:49:56.904Z,23.10
2018-04-22T08:52:23.571Z,23.00
2018-04-22T08:54:50.237Z,23.30
2018-04-22T08:57:16.911Z,23.70
2018-04-22T08:59:43.619Z,24.00
2018-04-22T09:02:10.304Z,23.60
2018-04-22T09:04:36.976Z,23.90
2018-04-22T09:07:03.694Z,24.40
2018-04-22T09:09:30.374Z,24.30
2018-04-22T09:11:57.102Z,24.20
2018-04-22T09:14:23.771Z,24.60
2018-04-22T09:16:51.217Z,24.60
2018-04-22T09:19:18.637Z,24.60
2018-04-22T09:21:45.329Z,24.60
2018-04-22T09:24:12.751Z,24.30
2018-04-22T09:26:39.476Z,24.30
2018-04-22T09:29:06.176Z,24.40
2018-04-22T09:31:32.890Z,24.70
2018-04-22T09:34:00.303Z,25.10
2018-04-22T09:36:27.008Z,25.10
2018-04-22T09:38:54.423Z,25.10
2018-04-22T09:41:21.170Z,25.10
2018-04-22T09:43:48.611Z,25.40
2018-04-22T09:46:15.350Z,25.40
2018-04-22T09:48:42.055Z,25.80
2018-04-22T09:51:08.818Z,25.70
2018-04-22T09:53:35.562Z,25.50
2018-04-22T09:56:02.281Z,26.10
2018-04-22T09:58:28.948Z,26.70
2018-04-22T10:01:00.556Z,27.20
2018-04-22T10:03:31.136Z,26.60
2018-04-22T10:06:01.699Z,27.10
2018-04-22T10:08:28.379Z,27.10
2018-04-22T10:10:55.089Z,27.40
2018-04-22T10:13:21.776Z,27.50
2018-04-22T10:15:48.438Z,27.40
2018-04-22T10:18:15.923Z,27.90
2018-04-22T10:20:42.615Z,27.90
2018-04-22T10:23:09.288Z,28.10
2018-04-22T10:25:35.968Z,28.00
2018-04-22T10:28:02.656Z,28.10
2018-04-22T10:30:29.416Z,27.80
2018-04-22T10:32:56.156Z,27.60
2018-04-22T10:35:22.916Z,28.30
2018-04-22T10:37:49.671Z,28.90
2018-04-22T10:40:16.436Z,28.90
2018-04-22T10:42:44.011Z,28.80
2018-04-22T10:45:10.768Z,28.80
2018-04-22T10:47:37.540Z,29.10
2018-04-22T10:50:04.311Z,28.80
2018-04-22T10:52:31.818Z,27.80
2018-04-22T10:54:58.660Z,27.80
2018-04-22T10:57:25.445Z,28.00
2018-04-22T10:59:52.277Z,28.20
2018-04-22T11:02:19.116Z,28.60
2018-04-22T11:04:45.816Z,28.60
2018-04-22T11:07:12.514Z,29.00
2018-04-22T11:09:39.270Z,29.30
2018-04-22T11:12:06.688Z,29.20
2018-04-22T11:14:33.383Z,29.20
2018-04-22T11:17:00.071Z,29.50
2018-04-22T11:19:26.738Z,29.20
2018-04-22T11:21:54.195Z,27.10
2018-04-22T11:24:21.633Z,26.80
2018-04-22T11:26:48.320Z,26.80
2018-04-22T11:29:15.004Z,27.50
2018-04-22T11:31:41.750Z,27.90
2018-04-22T11:34:08.428Z,28.90
2018-04-22T11:36:35.108Z,28.90
2018-04-22T11:39:01.798Z,28.60
2018-04-22T11:41:28.519Z,28.00
2018-04-22T11:43:56.000Z,28.50
2018-04-22T11:46:22.803Z,28.50
2018-04-22T11:48:50.303Z,29.20
2018-04-22T11:51:17.804Z,29.40
2018-04-22T11:53:44.491Z,29.40
2018-04-22T11:56:11.216Z,28.70
2018-04-22T11:58:37.951Z,27.80
2018-04-22T12:01:05.383Z,26.80
2018-04-22T12:03:32.103Z,26.70
2018-04-22T12:05:58.783Z,26.40
2018-04-22T12:08:26.216Z,26.00
2018-04-22T12:10:52.970Z,26.00
2018-04-22T12:13:20.432Z,26.50
2018-04-22T12:15:47.856Z,27.30
2018-04-22T12:18:14.551Z,27.40
2018-04-22T12:20:41.285Z,28.30
2018-04-22T12:23:08.711Z,28.10
2018-04-22T12:25:36.139Z,28.10
2018-04-22T12:28:02.854Z,28.20
2018-04-22T12:30:29.632Z,28.60
2018-04-22T12:32:56.303Z,28.60
2018-04-22T12:35:23.738Z,27.30
2018-04-22T12:37:50.512Z,27.30
2018-04-22T12:40:17.944Z,26.50
2018-04-22T12:42:46.420Z,26.20
2018-04-22T12:45:13.944Z,26.20
2018-04-22T12:47:40.726Z,26.30
2018-04-22T12:50:08.299Z,28.80
2018-04-22T12:52:35.103Z,28.70
2018-04-22T12:55:01.786Z,29.60
2018-04-22T12:57:29.244Z,29.60
2018-04-22T12:59:55.908Z,29.20
2018-04-22T13:02:22.631Z,29.60
2018-04-22T13:04:49.376Z,29.70
2018-04-22T13:07:16.116Z,29.60
2018-04-22T13:09:42.811Z,29.90
2018-04-22T13:12:10.288Z,28.90
2018-04-22T13:14:36.989Z,28.90
2018-04-22T13:17:03.728Z,28.20
2018-04-22T13:19:30.437Z,27.70
2018-04-22T13:21:57.103Z,27.40
2018-04-22T13:24:23.784Z,27.90
2018-04-22T13:26:50.459Z,28.10
2018-04-22T13:29:17.130Z,28.50
2018-04-22T13:31:43.873Z,29.00
2018-04-22T13:34:10.526Z,30.00
2018-04-22T13:36:37.976Z,30.50
2018-04-22T13:39:05.511Z,30.00
2018-04-22T13:41:32.223Z,30.00
2018-04-22T13:43:58.903Z,29.90
2018-04-22T13:46:25.609Z,29.70
2018-04-22T13:48:52.326Z,29.90
2018-04-22T13:51:19.035Z,30.00
2018-04-22T13:53:46.456Z,29.30
2018-04-22T13:56:13.921Z,29.80
2018-04-22T13:58:40.596Z,29.80
2018-04-22T14:01:07.308Z,30.30
2018-04-22T14:03:33.998Z,30.30
2018-04-22T14:06:00.743Z,30.40
2018-04-22T14:08:27.431Z,30.20
2018-04-22T14:10:54.856Z,30.10
2018-04-22T14:13:21.546Z,30.10
2018-04-22T14:15:48.267Z,30.70
2018-04-22T14:18:15.687Z,31.50
2018-04-22T14:20:42.362Z,31.50
2018-04-22T14:23:09.072Z,30.80
2018-04-22T14:25:35.754Z,30.70
2018-04-22T14:28:02.466Z,30.50
2018-04-22T14:30:29.134Z,30.60
2018-04-22T14:32:55.804Z,30.50
2018-04-22T14:35:22.472Z,30.30
2018-04-22T14:37:49.146Z,30.90
2018-04-22T14:40:15.864Z,31.10
2018-04-22T14:42:43.298Z,30.80
2018-04-22T14:45:28.377Z,30.70
2018-04-22T14:47:55.772Z,30.70
2018-04-22T14:50:22.535Z,31.10
2018-04-22T14:52:49.206Z,30.80
2018-04-22T14:55:15.904Z,30.80
2018-04-22T14:57:42.623Z,30.60
2018-04-22T15:00:10.119Z,30.40
2018-04-22T15:02:36.999Z,30.40
2018-04-22T15:05:04.472Z,30.20
2018-04-22T15:07:31.152Z,30.20
2018-04-22T15:09:57.816Z,29.90
2018-04-22T15:12:24.510Z,30.20
2018-04-22T15:14:51.203Z,30.40
2018-04-22T15:17:17.917Z,30.10
2018-04-22T15:19:44.595Z,29.90
2018-04-22T15:22:12.030Z,29.60
2018-04-22T15:24:38.739Z,29.60
2018-04-22T15:27:05.436Z,29.40
2018-04-22T15:29:32.858Z,29.50
2018-04-22T15:31:59.522Z,29.50
2018-04-22T15:34:26.944Z,29.40
2018-04-22T15:36:53.641Z,29.40
2018-04-22T15:39:20.335Z,30.00
2018-04-22T15:41:47.036Z,30.00
2018-04-22T15:44:13.769Z,30.30
2018-04-22T15:46:40.449Z,30.00
2018-04-22T15:49:07.121Z,29.50
2018-04-22T15:51:33.822Z,28.80
2018-04-22T15:54:00.524Z,29.10
2018-04-22T15:56:27.259Z,29.10
2018-04-22T15:58:53.977Z,28.90
2018-04-22T16:01:20.771Z,28.60
2018-04-22T16:03:47.539Z,28.70
2018-04-22T16:06:15.044Z,28.60
2018-04-22T16:08:41.786Z,28.60
2018-04-22T16:11:08.546Z,28.00
2018-04-22T16:13:35.279Z,27.80
2018-04-22T16:16:02.030Z,27.90
2018-04-22T16:18:28.775Z,28.00
2018-04-22T16:20:55.528Z,27.90
2018-04-22T16:23:22.254Z,27.80
2018-04-22T16:25:49.035Z,27.70
2018-04-22T16:28:15.805Z,27.60
2018-04-22T16:30:43.566Z,27.30
2018-04-22T16:33:10.375Z,26.80
2018-04-22T16:35:37.160Z,26.10
2018-04-22T16:38:03.940Z,25.50
2018-04-22T16:40:31.483Z,24.70
2018-04-22T16:42:58.222Z,24.70
2018-04-22T16:45:25.051Z,24.30
2018-04-22T16:47:51.815Z,24.20
2018-04-22T16:50:19.326Z,23.80
2018-04-22T16:52:46.139Z,23.80
2018-04-22T16:55:12.896Z,23.70
2018-04-22T16:57:39.637Z,23.60
2018-04-22T17:00:07.348Z,23.40
2018-04-22T17:02:34.133Z,23.30
2018-04-22T17:05:00.868Z,23.20
2018-04-22T17:07:27.640Z,23.20
2018-04-22T17:09:54.377Z,23.10
2018-04-22T17:12:21.146Z,23.00
2018-04-22T17:14:47.908Z,23.20
2018-04-22T17:17:15.415Z,23.00
2018-04-22T17:19:42.198Z,23.00
2018-04-22T17:22:09.672Z,23.00
2018-04-22T17:24:36.441Z,22.90
2018-04-22T17:27:03.246Z,23.00
2018-04-22T17:29:30.731Z,22.80
2018-04-22T17:31:57.471Z,22.80
2018-04-22T17:34:24.261Z,22.70
2018-04-22T17:36:51.035Z,22.60
2018-04-22T17:39:17.788Z,22.50
2018-04-22T17:41:44.638Z,22.40
2018-04-22T17:44:11.438Z,22.30
2018-04-22T17:46:38.129Z,22.10
2018-04-22T17:49:04.863Z,21.90
2018-04-22T17:51:31.639Z,22.00
2018-04-22T17:53:58.422Z,21.90
2018-04-22T17:56:25.260Z,21.80
2018-04-22T17:58:51.969Z,21.70
2018-04-22T18:01:18.696Z,21.50
2018-04-22T18:03:45.401Z,21.40
2018-04-22T18:06:12.106Z,21.30
2018-04-22T18:08:39.564Z,21.10
2018-04-22T18:11:07.048Z,20.90
2018-04-22T18:13:33.807Z,20.90
2018-04-22T18:16:00.570Z,20.70
2018-04-22T18:18:27.312Z,20.20
2018-04-22T18:20:54.004Z,20.00
2018-04-22T18:23:20.694Z,19.80
2018-04-22T18:25:47.414Z,19.70
2018-04-22T18:28:14.094Z,19.60
2018-04-22T18:30:41.520Z,19.60
2018-04-22T18:33:08.247Z,19.60
2018-04-22T18:35:34.902Z,19.40
2018-04-22T18:38:01.575Z,19.30
2018-04-22T18:40:28.288Z,19.30
2018-04-22T18:42:55.023Z,19.30
2018-04-22T18:45:21.723Z,19.20
2018-04-22T18:47:48.395Z,19.10
2018-04-22T18:50:15.114Z,19.00
2018-04-22T18:52:41.788Z,18.90
2018-04-22T18:55:09.241Z,18.90
2018-04-22T18:57:35.983Z,18.90
2018-04-22T19:00:04.467Z,19.00
2018-04-22T19:02:31.938Z,19.00
2018-04-22T19:04:59.369Z,18.90
2018-04-22T19:07:26.824Z,18.70
2018-04-22T19:09:53.486Z,18.70
2018-04-22T19:12:20.925Z,18.40
2018-04-22T19:14:48.358Z,18.20
2018-04-22T19:17:15.104Z,18.10
2018-04-22T19:19:41.836Z,17.90
2018-04-22T19:22:08.556Z,17.70
2018-04-22T19:24:35.248Z,17.60
2018-04-22T19:27:02.680Z,17.40
2018-04-22T19:29:29.349Z,17.40
2018-04-22T19:31:56.926Z,17.30
2018-04-22T19:34:23.635Z,17.30
2018-04-22T19:36:50.332Z,17.30
2018-04-22T19:39:17.003Z,17.30
2018-04-22T19:41:44.643Z,17.20
2018-04-22T19:44:11.327Z,17.10
2018-04-22T19:46:38.017Z,17.00
2018-04-22T19:49:04.713Z,17.00
2018-04-22T19:51:31.624Z,16.90
2018-04-22T19:53:58.506Z,16.90
2018-04-22T19:56:25.266Z,16.80
2018-04-22T19:58:52.046Z,16.70
2018-04-22T20:01:19.566Z,16.50
2018-04-22T20:03:46.309Z,16.50
2018-04-22T20:06:13.057Z,16.40
2018-04-22T20:08:39.747Z,16.40
2018-04-22T20:11:06.482Z,16.30
2018-04-22T20:13:33.179Z,16.30
2018-04-22T20:15:59.900Z,16.30
2018-04-22T20:18:26.603Z,16.10
2018-04-22T20:20:53.283Z,16.20
2018-04-22T20:23:20.057Z,16.20
2018-04-22T20:25:47.521Z,16.00
2018-04-22T20:28:14.956Z,16.00
2018-04-22T20:30:42.328Z,16.00
2018-04-22T20:33:09.756Z,15.90
2018-04-22T20:35:36.444Z,15.80
2018-04-22T20:38:03.151Z,15.70
2018-04-22T20:40:29.840Z,15.70
2018-04-22T20:42:56.561Z,15.50
2018-04-22T20:45:23.248Z,15.50
2018-04-22T20:47:49.923Z,15.50
2018-04-22T20:50:17.374Z,15.50
2018-04-22T20:52:44.850Z,15.40
2018-04-22T20:55:11.528Z,15.40
2018-04-22T20:57:38.230Z,15.30
2018-04-22T21:00:04.928Z,15.20
2018-04-22T21:02:31.608Z,15.10
2018-04-22T21:04:58.301Z,15.10
2018-04-22T21:07:25.015Z,15.10
2018-04-22T21:09:52.668Z,15.10
2018-04-22T21:12:19.460Z,15.10
2018-04-22T21:14:46.995Z,15.00
2018-04-22T21:17:13.696Z,15.00
2018-04-22T21:19:41.138Z,14.80
2018-04-22T21:22:07.811Z,14.80
2018-04-22T21:24:34.511Z,15.00
2018-04-22T21:27:01.199Z,15.10
2018-04-22T21:29:27.919Z,15.00
2018-04-22T21:31:54.588Z,14.90
2018-04-22T21:34:21.252Z,14.80
2018-04-22T21:36:47.918Z,14.70
2018-04-22T21:39:14.584Z,14.60
2018-04-22T21:41:41.291Z,14.60
2018-04-22T21:44:07.992Z,14.50
2018-04-22T21:46:35.472Z,14.50
2018-04-22T21:49:02.185Z,14.50
2018-04-22T21:51:28.957Z,14.40
2018-04-22T21:53:55.645Z,14.40
2018-04-22T21:56:22.316Z,14.20
2018-04-22T21:58:49.821Z,14.00
2018-04-22T22:01:16.556Z,14.00
2018-04-22T22:03:43.239Z,13.90
2018-04-22T22:06:09.976Z,13.90
2018-04-22T22:08:36.656Z,13.80
2018-04-22T22:11:03.386Z,13.80
2018-04-22T22:13:30.071Z,13.80
2018-04-22T22:15:56.763Z,13.80
2018-04-22T22:18:23.424Z,13.70
2018-04-22T22:20:50.123Z,13.70
2018-04-22T22:23:17.579Z,13.60
2018-04-22T22:25:45.017Z,13.60
2018-04-22T22:28:11.686Z,13.60
2018-04-22T22:30:38.358Z,13.50
2018-04-22T22:33:05.046Z,13.40
2018-04-22T22:35:32.466Z,13.30
2018-04-22T22:37:59.149Z,13.30
2018-04-22T22:40:26.584Z,13.20
2018-04-22T22:42:53.334Z,13.20
2018-04-22T22:45:20.781Z,13.00
2018-04-22T22:47:47.463Z,13.00
2018-04-22T22:50:14.156Z,13.00
2018-04-22T22:52:40.856Z,12.90
2018-04-22T22:55:07.543Z,13.00
2018-04-22T22:57:34.283Z,13.00
2018-04-22T23:00:01.766Z,12.80
2018-04-22T23:02:28.486Z,12.70
2018-04-22T23:04:55.923Z,12.60
2018-04-22T23:07:22.603Z,12.50
2018-04-22T23:09:49.306Z,12.50
2018-04-22T23:12:15.971Z,12.50
2018-04-22T23:14:42.651Z,12.40
2018-04-22T23:17:09.346Z,12.20
2018-04-22T23:19:36.036Z,12.20
2018-04-22T23:22:02.747Z,12.20
2018-04-22T23:24:29.406Z,12.20
2018-04-22T23:26:56.083Z,12.10
2018-04-22T23:29:23.512Z,12.00
2018-04-22T23:31:50.198Z,12.00
2018-04-22T23:34:16.878Z,12.00
2018-04-22T23:36:43.545Z,12.00
2018-04-22T23:39:10.230Z,12.00
2018-04-22T23:41:36.927Z,11.90
2018-04-22T23:44:03.635Z,11.90
2018-04-22T23:46:30.304Z,11.70
2018-04-22T23:48:57.738Z,11.70
2018-04-22T23:51:24.411Z,11.60
2018-04-22T23:53:51.088Z,11.70
2018-04-22T23:56:17.798Z,11.70
2018-04-22T23:58:44.478Z,11.70
